Vb La Graciosa — EA5408 — position and weather

sailwx.info

Track history (hours):
 
Tides and Currents Weather Stations Pressure Air Temp Water Temp Dewpoint Dewpoint Depression Visibility Wind Speed Wind Dir Waves Ship Positions

Vb La Graciosa

Last reported at 2018-Jan-23 12:00 UTC. Time now 2018-Jan-23 12:09 UTC.
Position N 28°08' W 015°25'.

Length 22 m.

Type: Ship. MMSI: 225983994.

Date/timePositionNaut miles runAvg speedWind from/ knotsBaromVisibWave heightAir tempDewpointWater temp
2018-Jan-23 12:00N 28°08' W 015°25'2 3.6
2018-Jan-23 11:30N 28°09' W 015°23'2 3.2
2018-Jan-23 10:59N 28°07' W 015°24'1 1.6
2018-Jan-23 10:30N 28°08' W 015°25'1 1.3
2018-Jan-23 10:00N 28°07' W 015°25'2 0.7
2018-Jan-23 07:32N 28°09' W 015°25'0 8.1
2018-Jan-23 07:30N 28°08' W 015°25'0 0.0
2018-Jan-22 17:26N 28°09' W 015°25'3 7.2
2018-Jan-22 17:00N 28°06' W 015°24'1 2.8
2018-Jan-22 16:30N 28°05' W 015°23'3 6.7
2018-Jan-22 16:00N 28°07' W 015°20'1 1.1
2018-Jan-22 15:30N 28°07' W 015°21'2 4.6
2018-Jan-22 15:00N 28°07' W 015°23'3 5.1
2018-Jan-22 14:30N 28°09' W 015°25'0 0.0
2018-Jan-22 14:00N 28°09' W 015°25'1 1.6
2018-Jan-22 13:30N 28°08' W 015°25'4 7.5
2018-Jan-22 13:00N 28°08' W 015°21'2 4.4
2018-Jan-22 12:30N 28°07' W 015°23'2 4.8
2018-Jan-22 12:00N 28°09' W 015°25'1 2.0
2018-Jan-22 11:30N 28°08' W 015°25'3 6.8
2018-Jan-22 11:00N 28°05' W 015°23'0 0.0
2018-Jan-22 10:30N 28°05' W 015°23'1 1.7
2018-Jan-22 09:59N 28°06' W 015°24'3 7.2
2018-Jan-22 09:30N 28°09' W 015°25'0 0.0
2018-Jan-22 09:00N 28°09' W 015°25'0 0.0
2018-Jan-22 08:30N 28°09' W 015°25'0 0.0
2018-Jan-22 08:00N 28°09' W 015°25'0 0.0
2018-Jan-22 07:30N 28°09' W 015°25'0 0.0
2018-Jan-21 12:18N 28°09' W 015°25'2 4.8
2018-Jan-21 11:59N 28°07' W 015°25'1 2.7
2018-Jan-21 11:30N 28°08' W 015°24'1 2.5
2018-Jan-21 11:00N 28°08' W 015°25'0 0.3
2018-Jan-21 10:30N 28°08' W 015°25'1 1.0
2018-Jan-21 09:11N 28°09' W 015°25'1 4.9
2018-Jan-21 09:01N 28°08' W 015°25'3 5.8
2018-Jan-21 08:31N 28°05' W 015°24'0 1.0
2018-Jan-21 08:00N 28°06' W 015°24'2 0.2
2018-Jan-20 21:41N 28°08' W 015°25'1 3.0
2018-Jan-20 21:30N 28°08' W 015°25'1 0.1
2018-Jan-20 10:36N 28°08' W 015°25'1 6.5
2018-Jan-20 10:30N 28°08' W 015°25'3 6.0
2018-Jan-20 10:00N 28°05' W 015°23'0 0.1
2018-Jan-20 09:30N 28°05' W 015°23'4 7.1
2018-Jan-20 09:00N 28°08' W 015°25'1 0.1
2018-Jan-19 21:52N 28°09' W 015°25'1 3.7
2018-Jan-19 21:30N 28°08' W 015°25'1 0.7
2018-Jan-19 19:28N 28°09' W 015°25'3 6.7
2018-Jan-19 19:00N 28°06' W 015°24'1 1.9
2018-Jan-19 18:30N 28°05' W 015°24'1 1.1
2018-Jan-19 18:00N 28°06' W 015°24'2 0.3
2018-Jan-19 12:56N 28°07' W 015°23'2 3.7
2018-Jan-19 12:30N 28°06' W 015°21'3 5.5
2018-Jan-19 12:00N 28°07' W 015°24'0 1.0
2018-Jan-19 11:30N 28°07' W 015°25'2 0.1
2018-Jan-18 09:37N 28°09' W 015°25'0 0.1
2018-Jan-18 09:30N 28°09' W 015°25'5 9.5
2018-Jan-18 09:00N 28°05' W 015°23'1 2.2
2018-Jan-18 08:30N 28°04' W 015°23'3 6.7
2018-Jan-18 08:00N 28°07' W 015°24'1 1.1
2018-Jan-18 07:30N 28°07' W 015°25'0 0.0
2018-Jan-18 07:00N 28°07' W 015°25'0 0.0
2018-Jan-18 06:30N 28°07' W 015°25'2 3.2
2018-Jan-18 06:00N 28°09' W 015°25'0 0.0
2018-Jan-18 05:30N 28°09' W 015°25'  
Track history (hours):
 
Tides and Currents Weather Stations Pressure Air Temp Water Temp Dewpoint Dewpoint Depression Visibility Wind Speed Wind Dir Waves Ship Positions

Vb La Graciosa

Last reported at 2018-Jan-23 12:00 UTC. Time now 2018-Jan-23 12:09 UTC.
Position N 28°08' W 015°25'.

Length 22 m.

Type: Ship. MMSI: 225983994.

Date/timePositionNaut miles runAvg speedWind from/ knotsBaromVisibWave heightAir tempDewpointWater temp
2018-Jan-23 12:00N 28°08' W 015°25'2 3.6
2018-Jan-23 11:30N 28°09' W 015°23'2 3.2
2018-Jan-23 10:59N 28°07' W 015°24'1 1.6
2018-Jan-23 10:30N 28°08' W 015°25'1 1.3
2018-Jan-23 10:00N 28°07' W 015°25'2 0.7
2018-Jan-23 07:32N 28°09' W 015°25'0 8.1
2018-Jan-23 07:30N 28°08' W 015°25'0 0.0
2018-Jan-22 17:26N 28°09' W 015°25'3 7.2
2018-Jan-22 17:00N 28°06' W 015°24'1 2.8
2018-Jan-22 16:30N 28°05' W 015°23'3 6.7
2018-Jan-22 16:00N 28°07' W 015°20'1 1.1
2018-Jan-22 15:30N 28°07' W 015°21'2 4.6
2018-Jan-22 15:00N 28°07' W 015°23'3 5.1
2018-Jan-22 14:30N 28°09' W 015°25'0 0.0
2018-Jan-22 14:00N 28°09' W 015°25'1 1.6
2018-Jan-22 13:30N 28°08' W 015°25'4 7.5
2018-Jan-22 13:00N 28°08' W 015°21'2 4.4
2018-Jan-22 12:30N 28°07' W 015°23'2 4.8
2018-Jan-22 12:00N 28°09' W 015°25'1 2.0
2018-Jan-22 11:30N 28°08' W 015°25'3 6.8
2018-Jan-22 11:00N 28°05' W 015°23'0 0.0
2018-Jan-22 10:30N 28°05' W 015°23'1 1.7
2018-Jan-22 09:59N 28°06' W 015°24'3 7.2
2018-Jan-22 09:30N 28°09' W 015°25'0 0.0
2018-Jan-22 09:00N 28°09' W 015°25'0 0.0
2018-Jan-22 08:30N 28°09' W 015°25'0 0.0
2018-Jan-22 08:00N 28°09' W 015°25'0 0.0
2018-Jan-22 07:30N 28°09' W 015°25'0 0.0
2018-Jan-21 12:18N 28°09' W 015°25'2 4.8
2018-Jan-21 11:59N 28°07' W 015°25'1 2.7
2018-Jan-21 11:30N 28°08' W 015°24'1 2.5
2018-Jan-21 11:00N 28°08' W 015°25'0 0.3
2018-Jan-21 10:30N 28°08' W 015°25'1 1.0
2018-Jan-21 09:11N 28°09' W 015°25'1 4.9
2018-Jan-21 09:01N 28°08' W 015°25'3 5.8
2018-Jan-21 08:31N 28°05' W 015°24'0 1.0
2018-Jan-21 08:00N 28°06' W 015°24'2 0.2
2018-Jan-20 21:41N 28°08' W 015°25'1 3.0
2018-Jan-20 21:30N 28°08' W 015°25'1 0.1
2018-Jan-20 10:36N 28°08' W 015°25'1 6.5
2018-Jan-20 10:30N 28°08' W 015°25'3 6.0
2018-Jan-20 10:00N 28°05' W 015°23'0 0.1
2018-Jan-20 09:30N 28°05' W 015°23'4 7.1
2018-Jan-20 09:00N 28°08' W 015°25'1 0.1
2018-Jan-19 21:52N 28°09' W 015°25'1 3.7
2018-Jan-19 21:30N 28°08' W 015°25'1 0.7
2018-Jan-19 19:28N 28°09' W 015°25'3 6.7
2018-Jan-19 19:00N 28°06' W 015°24'1 1.9
2018-Jan-19 18:30N 28°05' W 015°24'1 1.1
2018-Jan-19 18:00N 28°06' W 015°24'2 0.3
2018-Jan-19 12:56N 28°07' W 015°23'2 3.7
2018-Jan-19 12:30N 28°06' W 015°21'3 5.5
2018-Jan-19 12:00N 28°07' W 015°24'0 1.0
2018-Jan-19 11:30N 28°07' W 015°25'2 0.1
2018-Jan-18 09:37N 28°09' W 015°25'0 0.1
2018-Jan-18 09:30N 28°09' W 015°25'5 9.5
2018-Jan-18 09:00N 28°05' W 015°23'1 2.2
2018-Jan-18 08:30N 28°04' W 015°23'3 6.7
2018-Jan-18 08:00N 28°07' W 015°24'1 1.1
2018-Jan-18 07:30N 28°07' W 015°25'0 0.0
2018-Jan-18 07:00N 28°07' W 015°25'0 0.0
2018-Jan-18 06:30N 28°07' W 015°25'2 3.2
2018-Jan-18 06:00N 28°09' W 015°25'0 0.0
2018-Jan-18 05:30N 28°09' W 015°25'  

Dump ship's entire track history